タヒチ島 の空港の天気 - METARとTAF

タヒチ・ファアア国際空港 ( NTAA / PPT ) - フランス領ポリネシア タヒチ島
飛行場実況気象(Metar)
観測時間09/26 11:30 TAHT (09/26 21:30 UTC)
風向・風速北 3m/s
視程10km以上
天気現象
少しの雲 雲底高度 790m
気温29℃
湿度66%
気圧1016hPa
METARNTAA 262130Z VRB06KT 9999 FEW026 29/22 Q1016 WS ALL RWY NOSIG
過去の天気等 Google飛行場航空写真 Wunderground天気予報

過去48時間のMETAR

飛行場予報(TAF)
発表時間: 9/26 07:00 TAHT (9/26 17:00 UTC)
予報対象時間: 26日8時 TAHT ~ 27日14時 TAHT
風向・風速不定 3m/s
視程10km以上
少しの雲 雲底高度 730m
26日10時 TAHT ~ 26日18時 TAHT に 確率 30% で一時的に
風向・風速東北東 8m/s
TAF NTAA 261700Z 2618/2724 VRB05KT 9999 FEW024
PROB30 TEMPO 2620/2704 06015KT